Time;durP1;ratioP1;P1;durP2;ratioP2;P2;SDS_P1;SDS_P2;PMS_P1;PMS_P2;Temp;Humidity;BMP_temperature;BMP_pressure;BME280_temperature;BME280_humidity;BME280_pressure;Samples;Min_cycle;Max_cycle;Signal;HPM_P1;HPM_P2
2022/12/22 03:26:09;;;;;;;5.77;2.60;;;11.10;99.90;;;;;;5006796;28;20449;-73
2022/12/22 03:28:56;;;;;;;4.40;2.00;;;11.00;99.90;;;;;;5012800;28;20924;-74
2022/12/22 03:31:42;;;;;;;2.57;2.03;;;11.10;99.90;;;;;;5007461;28;20515;-71
2022/12/22 03:34:27;;;;;;;5.07;2.40;;;11.10;99.90;;;;;;5008009;28;20435;-71
2022/12/22 03:37:13;;;;;;;3.80;2.37;;;11.10;99.90;;;;;;5006733;28;21141;-73
2022/12/22 03:39:59;;;;;;;3.93;2.17;;;11.10;99.90;;;;;;5013819;28;20523;-72
2022/12/22 03:49:11;;;;;;;5.80;2.20;;;11.10;99.90;;;;;;5009267;28;20485;-71
2022/12/22 03:51:57;;;;;;;7.70;2.53;;;11.10;99.90;;;;;;5008957;28;20416;-71
2022/12/22 03:54:43;;;;;;;2.00;1.10;;;11.10;99.90;;;;;;5009056;28;20472;-72
2022/12/22 03:57:28;;;;;;;4.20;1.97;;;11.10;99.90;;;;;;5009088;28;20823;-75
2022/12/22 04:00:15;;;;;;;5.20;2.13;;;11.10;99.90;;;;;;5016445;28;20560;-71
2022/12/22 04:03:02;;;;;;;3.40;1.90;;;11.10;99.90;;;;;;5008315;28;20441;-71
2022/12/22 04:05:48;;;;;;;5.40;2.13;;;11.20;99.90;;;;;;5009216;28;20596;-72
2022/12/22 04:08:34;;;;;;;4.40;2.13;;;11.20;99.90;;;;;;5004709;28;21046;-71
2022/12/22 04:14:23;;;;;;;4.90;2.00;;;11.20;99.90;;;;;;5004402;28;20515;-71
2022/12/22 04:17:09;;;;;;;3.93;1.60;;;11.10;99.90;;;;;;5007964;28;20466;-70
2022/12/22 04:19:56;;;;;;;4.77;2.23;;;11.20;99.90;;;;;;5010919;28;20612;-71
2022/12/22 04:22:42;;;;;;;5.00;2.13;;;11.20;99.90;;;;;;5006363;28;20441;-71
2022/12/22 04:25:28;;;;;;;5.70;2.53;;;11.20;99.90;;;;;;5009448;28;20466;-71
2022/12/22 04:28:13;;;;;;;3.30;2.03;;;11.20;99.90;;;;;;5008345;28;20512;-70
2022/12/22 04:30:59;;;;;;;5.23;2.07;;;11.20;99.90;;;;;;5008300;28;20453;-71
2022/12/22 04:33:45;;;;;;;3.60;1.90;;;11.30;99.90;;;;;;5009082;28;20471;-70
2022/12/22 04:36:32;;;;;;;4.23;2.07;;;11.20;99.90;;;;;;5010339;28;20816;-71
2022/12/22 04:39:17;;;;;;;7.00;2.37;;;11.30;99.90;;;;;;5007841;28;20461;-71
2022/12/22 04:42:03;;;;;;;4.00;2.00;;;11.30;99.90;;;;;;5012022;28;20423;-72
2022/12/22 04:44:49;;;;;;;4.33;1.87;;;11.30;99.90;;;;;;5007422;28;20973;-71
2022/12/22 04:47:34;;;;;;;5.10;2.23;;;11.20;99.90;;;;;;5005186;28;20448;-71
2022/12/22 04:50:20;;;;;;;2.57;1.70;;;11.20;99.90;;;;;;5012734;28;20434;-71
2022/12/22 04:53:07;;;;;;;5.50;2.20;;;11.20;99.90;;;;;;5008253;28;20965;-73
2022/12/22 04:55:56;;;;;;;4.60;1.93;;;11.20;99.90;;;;;;5010186;28;20499;-71
2022/12/22 04:58:42;;;;;;;3.87;1.30;;;11.10;99.90;;;;;;5006906;28;20932;-71
2022/12/22 05:01:28;;;;;;;4.40;1.60;;;11.10;99.90;;;;;;5009352;28;20929;-71
2022/12/22 05:04:13;;;;;;;6.40;1.80;;;11.10;99.90;;;;;;5004096;28;20544;-70
2022/12/22 05:06:59;;;;;;;4.63;1.70;;;11.10;99.90;;;;;;5007995;28;20922;-71
2022/12/22 05:09:46;;;;;;;2.70;1.30;;;11.10;99.90;;;;;;5013890;28;20453;-71
2022/12/22 05:15:35;;;;;;;5.63;1.63;;;11.10;99.90;;;;;;5008938;28;20444;-73
2022/12/22 05:18:21;;;;;;;2.10;1.60;;;11.10;99.90;;;;;;5013487;28;20811;-73
2022/12/22 05:21:09;;;;;;;3.70;1.30;;;11.00;99.90;;;;;;5007242;28;20472;-74
2022/12/22 05:23:54;;;;;;;2.57;1.60;;;10.90;99.90;;;;;;5016672;28;21038;-71
2022/12/22 05:26:41;;;;;;;4.30;1.37;;;10.90;99.90;;;;;;5010793;28;20491;-71
2022/12/22 05:29:27;;;;;;;6.53;2.10;;;11.00;99.90;;;;;;5010522;28;20592;-71
2022/12/22 05:32:13;;;;;;;3.63;1.60;;;10.90;99.90;;;;;;5010900;28;20913;-73
2022/12/22 05:34:58;;;;;;;2.07;1.47;;;10.90;99.90;;;;;;5012252;28;20874;-71
2022/12/22 05:37:44;;;;;;;5.97;1.87;;;10.90;99.90;;;;;;5007600;28;20472;-71
2022/12/22 05:40:30;;;;;;;9.53;3.17;;;10.90;99.90;;;;;;5016012;28;20481;-71
2022/12/22 05:43:17;;;;;;;15.10;2.03;;;10.90;99.90;;;;;;5009529;28;20512;-71
2022/12/22 05:46:04;;;;;;;7.37;3.93;;;10.90;99.90;;;;;;5011569;28;20449;-75
2022/12/22 05:48:49;;;;;;;3.13;1.90;;;10.90;99.90;;;;;;5009900;28;21075;-74
2022/12/22 05:51:35;;;;;;;3.17;1.80;;;10.90;99.90;;;;;;5008012;28;20527;-70
2022/12/22 05:54:21;;;;;;;4.83;2.40;;;10.90;99.90;;;;;;5017915;28;20828;-70
2022/12/22 05:57:06;;;;;;;3.17;1.70;;;10.90;99.90;;;;;;5008178;28;20453;-71
2022/12/22 05:59:53;;;;;;;4.77;2.40;;;10.90;99.90;;;;;;5014581;28;20472;-71
2022/12/22 06:02:39;;;;;;;10.70;2.03;;;10.90;99.90;;;;;;5007641;28;20445;-72
2022/12/22 06:05:25;;;;;;;7.37;2.00;;;10.90;99.90;;;;;;5009940;28;20833;-70
2022/12/22 06:08:10;;;;;;;7.43;2.60;;;10.90;99.90;;;;;;5009480;28;20513;-71
2022/12/22 06:10:57;;;;;;;3.90;1.83;;;10.90;99.90;;;;;;5016089;28;20441;-70
2022/12/22 06:13:43;;;;;;;4.50;1.87;;;11.00;99.90;;;;;;5012725;28;20461;-70
2022/12/22 06:16:30;;;;;;;10.73;2.30;;;11.00;99.90;;;;;;5006134;28;20453;-70
2022/12/22 06:19:15;;;;;;;7.60;1.97;;;11.00;99.90;;;;;;5006795;28;20446;-71
2022/12/22 06:22:01;;;;;;;7.13;1.77;;;11.00;99.90;;;;;;5018145;28;20884;-70
2022/12/22 06:24:47;;;;;;;6.07;1.93;;;11.00;99.90;;;;;;5011314;28;20624;-70
2022/12/22 06:27:33;;;;;;;4.43;1.67;;;11.10;99.90;;;;;;5008015;28;20445;-71
2022/12/22 06:30:19;;;;;;;6.50;1.67;;;11.10;99.90;;;;;;5012148;28;20441;-72
2022/12/22 06:33:06;;;;;;;5.30;1.87;;;11.10;99.90;;;;;;5006173;28;20508;-70
2022/12/22 06:35:52;;;;;;;4.43;2.00;;;11.10;99.90;;;;;;5007255;28;20492;-70
2022/12/22 06:38:37;;;;;;;7.67;1.60;;;11.10;99.90;;;;;;5010176;28;20449;-71
2022/12/22 06:44:22;;;;;;;6.93;1.87;;;11.10;99.90;;;;;;5016972;28;20500;-69
2022/12/22 06:47:08;;;;;;;17.20;2.63;;;11.10;99.90;;;;;;5005367;28;20812;-70
2022/12/22 06:49:55;;;;;;;13.83;2.23;;;11.10;99.90;;;;;;5009027;28;20441;-70
2022/12/22 06:52:40;;;;;;;7.43;2.00;;;11.10;99.90;;;;;;5009515;28;20532;-70
2022/12/22 06:55:26;;;;;;;7.00;2.00;;;11.10;99.90;;;;;;5010317;28;20987;-70
2022/12/22 06:58:12;;;;;;;9.70;2.30;;;11.10;99.90;;;;;;5010564;28;20453;-72
2022/12/22 07:00:58;;;;;;;2.87;1.40;;;11.00;99.90;;;;;;5019224;28;20477;-71
2022/12/22 07:03:43;;;;;;;10.97;1.90;;;11.00;99.90;;;;;;5013472;28;20533;-71
2022/12/22 07:06:30;;;;;;;5.70;1.60;;;11.00;99.90;;;;;;5011944;28;20455;-71
2022/12/22 07:09:16;;;;;;;10.43;2.50;;;11.00;99.90;;;;;;5011355;28;20484;-71
2022/12/22 07:12:02;;;;;;;6.80;2.00;;;11.00;99.90;;;;;;5006615;28;20419;-71
2022/12/22 07:14:48;;;;;;;3.07;1.93;;;11.00;99.90;;;;;;5012802;28;20521;-70
2022/12/22 07:17:34;;;;;;;2.93;1.53;;;11.00;99.90;;;;;;5015530;28;20812;-71
2022/12/22 07:20:19;;;;;;;5.27;1.73;;;11.00;99.90;;;;;;5016112;28;20484;-71
2022/12/22 07:23:06;;;;;;;4.00;1.50;;;11.00;99.90;;;;;;5014581;28;20565;-70
2022/12/22 07:25:52;;;;;;;9.73;2.50;;;11.00;99.90;;;;;;5006345;28;21002;-73
2022/12/22 07:28:40;;;;;;;10.77;2.20;;;11.10;99.90;;;;;;5018448;28;20448;-70
2022/12/22 07:31:25;;;;;;;5.03;1.80;;;11.10;99.90;;;;;;5012253;28;20430;-71
2022/12/22 07:34:12;;;;;;;7.43;1.83;;;11.10;99.90;;;;;;5010913;28;20449;-72
2022/12/22 07:36:57;;;;;;;8.10;1.87;;;11.10;99.90;;;;;;5009004;28;20418;-71
2022/12/22 07:39:44;;;;;;;11.10;2.27;;;11.10;99.90;;;;;;5015105;28;22503;-72
2022/12/22 07:45:36;;;;;;;5.83;2.20;;;11.10;99.90;;;;;;5006289;28;20466;-71
2022/12/22 07:51:24;;;;;;;8.07;2.50;;;11.10;99.90;;;;;;5013595;28;20965;-70
2022/12/22 07:54:12;;;;;;;9.30;1.93;;;11.10;99.90;;;;;;5034763;23;20491;-75
2022/12/22 07:56:59;;;;;;;6.77;2.60;;;11.10;99.90;;;;;;5028265;28;20988;-75
2022/12/22 07:59:44;;;;;;;9.53;2.30;;;11.10;99.90;;;;;;5041336;28;20572;-75
2022/12/22 08:02:30;;;;;;;12.87;2.40;;;11.10;99.90;;;;;;5034795;28;20427;-75
2022/12/22 08:05:16;;;;;;;10.07;2.70;;;11.00;99.90;;;;;;5014164;28;20474;-75
2022/12/22 08:08:02;;;;;;;7.83;1.90;;;11.10;99.90;;;;;;5014044;28;20424;-74
2022/12/22 08:10:47;;;;;;;7.20;2.00;;;11.10;99.90;;;;;;5031325;28;20420;-75
2022/12/22 08:13:35;;;;;;;6.63;1.63;;;11.10;99.90;;;;;;5018714;28;20949;-75
2022/12/22 08:16:21;;;;;;;10.13;2.17;;;11.10;99.90;;;;;;5019752;28;21004;-75
2022/12/22 08:19:06;;;;;;;8.80;2.07;;;11.10;99.90;;;;;;5025248;28;20686;-75
2022/12/22 08:21:52;;;;;;;5.73;2.60;;;11.20;99.90;;;;;;5028629;28;20468;-75
2022/12/22 08:24:37;;;;;;;12.63;2.77;;;11.20;99.90;;;;;;5017187;28;20476;-75
2022/12/22 08:27:27;;;;;;;10.17;2.37;;;11.20;99.90;;;;;;5015592;28;20523;-76
2022/12/22 08:30:14;;;;;;;15.30;2.57;;;11.30;99.90;;;;;;5009776;28;20529;-75
2022/12/22 08:33:00;;;;;;;7.57;2.43;;;11.30;99.90;;;;;;5012915;28;20454;-75
2022/12/22 08:35:46;;;;;;;5.93;1.63;;;11.30;99.90;;;;;;5015914;28;20468;-75
2022/12/22 08:38:32;;;;;;;7.27;1.63;;;11.30;99.90;;;;;;5026786;28;20945;-76
2022/12/22 08:41:48;;;;;;;8.23;2.10;;;11.30;99.90;;;;;;5007643;28;20519;-75
2022/12/22 08:44:26;;;;;;;12.00;2.60;;;11.40;99.90;;;;;;5004663;28;20860;-76
2022/12/22 08:47:13;;;;;;;9.10;2.23;;;11.40;99.90;;;;;;5030865;28;20428;-75
2022/12/22 08:49:59;;;;;;;12.83;5.17;;;11.50;99.90;;;;;;5017351;28;20424;-75
2022/12/22 08:52:44;;;;;;;5.13;2.83;;;11.60;99.90;;;;;;5020082;28;20464;-75
2022/12/22 08:55:30;;;;;;;11.13;2.90;;;11.60;99.90;;;;;;5001766;28;20819;-75
2022/12/22 08:58:15;;;;;;;8.40;2.37;;;11.60;99.90;;;;;;5014235;28;20459;-75
2022/12/22 09:01:01;;;;;;;12.23;2.40;;;11.60;99.90;;;;;;5011851;28;20502;-74
2022/12/22 09:03:54;;;;;;;11.70;2.10;;;11.60;99.90;;;;;;5014545;28;20564;-74
2022/12/22 09:06:39;;;;;;;7.87;2.20;;;11.50;99.90;;;;;;5029015;28;20555;-76
2022/12/22 09:09:25;;;;;;;10.80;2.73;;;11.60;99.90;;;;;;5028156;28;20810;-75
2022/12/22 09:12:11;;;;;;;9.93;2.57;;;11.60;99.90;;;;;;5029239;28;20429;-75
2022/12/22 09:14:57;;;;;;;15.77;2.40;;;11.60;99.90;;;;;;5019400;28;20832;-75
2022/12/22 09:17:43;;;;;;;15.10;3.50;;;11.60;99.90;;;;;;5024024;28;20933;-74
2022/12/22 09:20:30;;;;;;;11.17;2.93;;;11.50;99.90;;;;;;5029714;28;20475;-74
2022/12/22 09:23:15;;;;;;;11.73;3.17;;;11.50;99.90;;;;;;5018456;28;20498;-75
2022/12/22 09:26:06;;;;;;;14.83;2.93;;;11.60;99.90;;;;;;5014145;28;21089;-75
2022/12/22 09:28:52;;;;;;;14.83;2.80;;;11.60;99.90;;;;;;5018022;28;20519;-75
2022/12/22 09:31:40;;;;;;;12.63;3.10;;;11.50;99.90;;;;;;5023185;28;20887;-75
2022/12/22 09:34:26;;;;;;;9.73;2.87;;;11.60;99.90;;;;;;5011259;28;20472;-75
2022/12/22 09:37:14;;;;;;;19.87;3.70;;;11.60;99.90;;;;;;5027940;28;20440;-75
2022/12/22 09:40:00;;;;;;;12.60;3.23;;;11.60;99.90;;;;;;5024973;28;20444;-75
2022/12/22 09:42:45;;;;;;;19.20;2.90;;;11.60;99.90;;;;;;5016830;28;20812;-75
2022/12/22 09:45:32;;;;;;;16.13;3.00;;;11.50;99.90;;;;;;5015396;28;20470;-75
2022/12/22 09:48:18;;;;;;;13.10;2.60;;;11.60;99.90;;;;;;5025625;28;20428;-75
2022/12/22 09:51:04;;;;;;;8.60;2.73;;;11.50;99.90;;;;;;5030228;28;20501;-75
2022/12/22 09:53:55;;;;;;;9.10;2.73;;;11.50;99.90;;;;;;5007034;28;20461;-75
2022/12/22 09:56:40;;;;;;;11.33;2.37;;;11.40;99.90;;;;;;5024690;28;20416;-75
2022/12/22 09:59:30;;;;;;;16.47;3.10;;;11.40;99.90;;;;;;5019533;28;20911;-75
2022/12/22 10:02:26;;;;;;;10.37;2.20;;;11.40;99.90;;;;;;5016000;28;20473;-74
2022/12/22 10:05:27;;;;;;;10.20;2.40;;;11.40;99.90;;;;;;5023454;28;20871;-75
2022/12/22 10:08:14;;;;;;;14.47;2.47;;;11.30;99.90;;;;;;5034369;28;20429;-75
2022/12/22 10:11:00;;;;;;;8.47;2.30;;;11.40;99.90;;;;;;5026189;28;20429;-75
2022/12/22 10:13:46;;;;;;;10.47;2.67;;;11.30;99.90;;;;;;5007289;28;20528;-75
2022/12/22 10:16:31;;;;;;;9.30;2.27;;;11.30;99.90;;;;;;5018625;28;20434;-75
2022/12/22 10:19:21;;;;;;;9.90;2.00;;;11.30;99.90;;;;;;5025568;28;20424;-75
2022/12/22 10:22:22;;;;;;;10.37;2.00;;;11.30;99.90;;;;;;5027113;28;21075;-75
2022/12/22 10:25:28;;;;;;;10.20;3.00;;;11.20;99.90;;;;;;5007828;28;20469;-75
2022/12/22 10:28:20;;;;;;;8.23;1.93;;;11.20;99.90;;;;;;5015352;28;21164;-75
2022/12/22 10:31:13;;;;;;;12.17;2.00;;;11.10;99.90;;;;;;5033794;28;20409;-75
2022/12/22 10:34:12;;;;;;;4.37;1.70;;;11.10;99.90;;;;;;5016564;28;20550;-74
2022/12/22 10:37:01;;;;;;;5.67;1.47;;;11.10;99.90;;;;;;5027785;28;20958;-75
2022/12/22 10:39:46;;;;;;;4.50;1.50;;;11.20;99.90;;;;;;5020861;28;20496;-74
2022/12/22 10:42:32;;;;;;;4.83;1.40;;;11.20;99.90;;;;;;5007081;28;21053;-75
2022/12/22 10:45:22;;;;;;;4.87;1.50;;;11.20;99.90;;;;;;5017569;28;20460;-75
2022/12/22 10:48:07;;;;;;;5.80;1.10;;;11.20;99.90;;;;;;5032794;28;20428;-75
2022/12/22 10:50:53;;;;;;;3.30;1.30;;;11.20;99.90;;;;;;5014028;28;20426;-74
2022/12/22 10:53:46;;;;;;;4.30;1.60;;;11.10;99.90;;;;;;5007434;28;20910;-74
2022/12/22 10:56:33;;;;;;;4.83;1.23;;;11.20;99.90;;;;;;5032648;28;20440;-74
2022/12/22 10:59:22;;;;;;;4.30;1.30;;;11.10;99.90;;;;;;5011789;28;20428;-75
2022/12/22 11:02:28;;;;;;;2.33;1.07;;;11.20;99.90;;;;;;5010250;28;20477;-75
2022/12/22 11:05:14;;;;;;;4.50;1.20;;;11.20;99.90;;;;;;5020847;28;20453;-75
2022/12/22 11:08:06;;;;;;;4.40;1.30;;;11.30;99.90;;;;;;5021089;28;20453;-75
2022/12/22 11:10:55;;;;;;;2.67;1.20;;;11.30;99.90;;;;;;5017602;28;20403;-76
2022/12/22 11:13:57;;;;;;;4.47;1.20;;;11.30;99.90;;;;;;5012396;28;20532;-75
2022/12/22 11:16:50;;;;;;;1.87;1.03;;;11.40;99.90;;;;;;5031174;28;20953;-75
2022/12/22 11:19:51;;;;;;;3.93;1.33;;;11.40;99.90;;;;;;5029505;28;20443;-74
2022/12/22 11:22:45;;;;;;;1.77;1.10;;;11.40;99.90;;;;;;5008984;28;20476;-75
2022/12/22 11:25:43;;;;;;;2.10;1.13;;;11.40;99.90;;;;;;5018956;28;21029;-75
2022/12/22 11:29:01;;;;;;;2.40;1.07;;;11.40;99.90;;;;;;5012697;28;20437;-75
2022/12/22 11:31:58;;;;;;;4.03;1.00;;;11.40;99.90;;;;;;5017847;28;20413;-75
2022/12/22 11:34:55;;;;;;;3.00;1.03;;;11.30;99.90;;;;;;5023732;28;20461;-75
2022/12/22 11:37:49;;;;;;;4.03;1.30;;;11.40;99.90;;;;;;5013235;28;20520;-75
2022/12/22 11:40:41;;;;;;;2.53;1.00;;;11.40;99.90;;;;;;5007052;28;20449;-72
2022/12/22 11:43:33;;;;;;;1.70;0.73;;;11.40;99.90;;;;;;5006915;28;20444;-72
2022/12/22 11:46:27;;;;;;;2.43;1.00;;;11.40;99.90;;;;;;5017636;28;20446;-72
2022/12/22 11:49:37;;;;;;;2.80;1.57;;;11.50;99.90;;;;;;4992528;28;20470;-72
2022/12/22 11:52:48;;;;;;;3.63;1.60;;;11.50;99.90;;;;;;4996048;28;21020;-75
2022/12/22 11:55:35;;;;;;;5.73;1.00;;;11.50;99.90;;;;;;5003779;28;20487;-74
2022/12/22 11:58:41;;;;;;;2.53;0.90;;;11.50;99.90;;;;;;5018515;28;20433;-75
2022/12/22 12:01:43;;;;;;;6.90;3.20;;;11.50;99.90;;;;;;5021337;28;20460;-75
2022/12/22 12:04:53;;;;;;;5.10;2.10;;;11.50;99.90;;;;;;5029667;28;20587;-75
2022/12/22 12:07:44;;;;;;;10.00;4.30;;;11.50;99.90;;;;;;5024140;28;20510;-74
2022/12/22 12:10:35;;;;;;;2.23;1.23;;;11.50;99.90;;;;;;5022958;28;20483;-75
2022/12/22 12:13:29;;;;;;;10.50;5.27;;;11.50;99.90;;;;;;5020869;28;20448;-76
2022/12/22 12:16:24;;;;;;;5.50;3.40;;;11.60;99.90;;;;;;5015323;28;20528;-75
2022/12/22 12:19:34;;;;;;;5.13;1.20;;;11.50;99.90;;;;;;5016938;28;20527;-76
2022/12/22 12:22:32;;;;;;;52.07;23.97;;;11.50;99.90;;;;;;5005280;28;20532;-76
2022/12/22 12:25:28;;;;;;;27.27;10.33;;;11.50;99.90;;;;;;5021877;28;20806;-76
2022/12/22 12:28:23;;;;;;;23.50;12.97;;;11.60;99.90;;;;;;5016474;28;20541;-75
2022/12/22 12:31:12;;;;;;;6.87;3.70;;;11.50;99.90;;;;;;5010305;28;20444;-75
2022/12/22 12:34:01;;;;;;;16.60;10.50;;;11.60;99.90;;;;;;5022235;28;20523;-74
2022/12/22 12:36:52;;;;;;;5.50;3.57;;;11.60;99.90;;;;;;5022493;28;20445;-75
2022/12/22 12:39:49;;;;;;;4.23;2.37;;;11.60;99.90;;;;;;5019707;28;20799;-76
2022/12/22 12:42:39;;;;;;;2.73;1.10;;;11.60;99.90;;;;;;5026776;28;20479;-74
2022/12/22 12:45:36;;;;;;;3.77;1.13;;;11.60;99.90;;;;;;5029408;28;20457;-75
2022/12/22 12:48:40;;;;;;;2.80;1.67;;;11.60;99.90;;;;;;5027396;28;20968;-76
2022/12/22 12:51:54;;;;;;;3.30;0.80;;;11.60;99.90;;;;;;5010401;28;20504;-75
2022/12/22 12:54:41;;;;;;;2.03;0.90;;;11.60;99.90;;;;;;5012211;28;20480;-75
2022/12/22 12:57:28;;;;;;;2.00;0.80;;;11.60;99.90;;;;;;5029963;28;20436;-75
2022/12/22 13:00:45;;;;;;;1.60;0.77;;;11.60;99.90;;;;;;5014542;28;20467;-75
2022/12/22 13:03:38;;;;;;;2.37;1.10;;;11.60;99.90;;;;;;5025755;28;20548;-74
2022/12/22 13:06:49;;;;;;;2.13;0.90;;;11.60;99.90;;;;;;5010260;28;21147;-75
2022/12/22 13:09:35;;;;;;;2.87;1.00;;;11.50;99.90;;;;;;5013344;28;20424;-75
2022/12/22 13:12:33;;;;;;;1.97;0.70;;;11.60;99.90;;;;;;5022820;28;20536;-75
2022/12/22 13:15:30;;;;;;;1.43;0.90;;;11.50;99.90;;;;;;5020808;28;20457;-75
2022/12/22 13:18:42;;;;;;;1.50;0.60;;;11.50;99.90;;;;;;5020226;28;20436;-75
2022/12/22 13:21:30;;;;;;;1.40;0.73;;;11.50;99.90;;;;;;5027428;28;20463;-74
2022/12/22 13:24:27;;;;;;;3.63;0.90;;;11.60;99.90;;;;;;5023614;28;20452;-74
2022/12/22 13:27:12;;;;;;;3.13;1.60;;;11.50;99.90;;;;;;5011411;28;20494;-74
2022/12/22 13:29:58;;;;;;;2.90;1.40;;;11.50;99.90;;;;;;5010250;28;20515;-74
2022/12/22 13:32:47;;;;;;;1.93;1.17;;;11.50;99.90;;;;;;5022364;28;20438;-74
2022/12/22 13:35:38;;;;;;;1.97;1.47;;;11.50;99.90;;;;;;5022444;28;20517;-75
2022/12/22 13:38:29;;;;;;;3.20;0.90;;;11.40;99.90;;;;;;5021210;28;20963;-74
2022/12/22 13:41:16;;;;;;;2.43;2.00;;;11.40;99.90;;;;;;5005465;28;20448;-74
2022/12/22 13:44:07;;;;;;;1.90;1.10;;;11.40;99.90;;;;;;5015914;28;20540;-75
2022/12/22 13:46:54;;;;;;;2.07;1.37;;;11.50;99.90;;;;;;5009981;28;20441;-74
2022/12/22 13:49:42;;;;;;;3.13;1.80;;;11.40;99.90;;;;;;5013074;28;20567;-74
2022/12/22 13:52:29;;;;;;;1.90;1.30;;;11.40;99.90;;;;;;5026198;28;20440;-74
2022/12/22 13:55:18;;;;;;;1.40;0.87;;;11.50;99.90;;;;;;5009954;28;20472;-75
2022/12/22 13:58:08;;;;;;;2.03;0.80;;;11.50;99.90;;;;;;4999671;28;20519;-77
2022/12/22 14:01:13;;;;;;;2.20;0.90;;;11.50;99.90;;;;;;5015400;28;20599;-74
2022/12/22 14:04:02;;;;;;;1.47;0.87;;;11.50;99.90;;;;;;5008712;28;20296;-75
2022/12/22 14:06:48;;;;;;;1.60;0.90;;;11.40;99.90;;;;;;5013112;28;20589;-75
2022/12/22 14:09:35;;;;;;;2.53;1.30;;;11.40;99.90;;;;;;5008255;28;20548;-75
2022/12/22 14:12:23;;;;;;;3.20;1.00;;;11.40;99.90;;;;;;5023554;28;20420;-76
2022/12/22 14:15:16;;;;;;;2.73;1.17;;;11.50;99.90;;;;;;5017570;28;20476;-76
2022/12/22 14:18:02;;;;;;;1.97;1.00;;;11.40;99.90;;;;;;5015278;28;20969;-76
2022/12/22 14:20:48;;;;;;;1.60;0.90;;;11.50;99.90;;;;;;5028413;28;20782;-74
2022/12/22 14:23:37;;;;;;;2.23;1.20;;;11.50;99.90;;;;;;5023711;28;20484;-75
2022/12/22 14:26:29;;;;;;;1.90;0.90;;;11.50;99.90;;;;;;5016352;28;20415;-77
2022/12/22 14:29:18;;;;;;;2.10;1.10;;;11.50;99.90;;;;;;5014300;28;20448;-76
2022/12/22 14:32:04;;;;;;;1.87;0.97;;;11.50;99.90;;;;;;5018699;28;20436;-74
2022/12/22 14:34:54;;;;;;;1.90;0.87;;;11.50;99.90;;;;;;5013958;28;20815;-76
2022/12/22 14:37:39;;;;;;;1.70;0.83;;;11.50;99.90;;;;;;5018204;28;20446;-76
2022/12/22 14:40:30;;;;;;;2.40;1.00;;;11.50;99.90;;;;;;5021120;28;20524;-75
2022/12/22 14:43:30;;;;;;;2.37;1.30;;;11.40;99.90;;;;;;5018122;28;20457;-76
2022/12/22 14:46:18;;;;;;;6.33;1.37;;;11.60;99.90;;;;;;5024042;28;21004;-75
2022/12/22 14:49:04;;;;;;;2.50;1.17;;;11.60;99.90;;;;;;5005346;28;20587;-76
2022/12/22 14:51:54;;;;;;;3.43;1.20;;;11.60;99.90;;;;;;5019164;28;20441;-75
2022/12/22 14:54:40;;;;;;;3.07;1.57;;;11.50;99.90;;;;;;5019633;28;20509;-75
2022/12/22 14:57:33;;;;;;;4.90;2.07;;;11.50;99.90;;;;;;5019722;28;21022;-75
2022/12/22 15:00:36;;;;;;;2.77;1.83;;;11.60;99.90;;;;;;5015322;28;20434;-75
2022/12/22 15:03:30;;;;;;;2.37;0.93;;;11.50;99.90;;;;;;5018376;28;20477;-72
2022/12/22 15:06:25;;;;;;;1.63;0.90;;;11.50;99.90;;;;;;5017255;28;20447;-72
2022/12/22 15:09:26;;;;;;;2.40;1.23;;;11.50;99.90;;;;;;5019044;28;20441;-72
2022/12/22 15:12:13;;;;;;;2.70;1.20;;;11.40;99.90;;;;;;5027450;28;20451;-71
2022/12/22 15:15:00;;;;;;;4.00;1.23;;;11.40;99.90;;;;;;5015646;28;20469;-72
2022/12/22 15:17:51;;;;;;;4.50;1.30;;;11.30;99.90;;;;;;4996631;28;20592;-71
2022/12/22 15:20:37;;;;;;;1.93;1.20;;;11.20;99.90;;;;;;5008085;28;20399;-72
2022/12/22 15:23:22;;;;;;;5.23;1.07;;;11.20;99.90;;;;;;5011781;28;20472;-71
2022/12/22 15:26:08;;;;;;;2.37;0.90;;;11.20;99.90;;;;;;5015149;28;20906;-75
2022/12/22 15:28:54;;;;;;;3.87;1.00;;;11.10;99.90;;;;;;5013649;28;20447;-76
2022/12/22 15:31:42;;;;;;;3.23;1.47;;;11.10;99.90;;;;;;5008929;28;20458;-75
2022/12/22 15:34:31;;;;;;;2.10;1.17;;;11.10;99.90;;;;;;5010504;28;20453;-75
2022/12/22 15:37:17;;;;;;;2.83;1.20;;;11.10;99.90;;;;;;5006793;28;20963;-74
2022/12/22 15:40:03;;;;;;;2.77;1.17;;;11.10;99.90;;;;;;5021239;28;20941;-75
2022/12/22 15:42:50;;;;;;;2.80;1.20;;;11.20;99.90;;;;;;5018863;28;20476;-75
2022/12/22 15:45:36;;;;;;;2.30;1.50;;;11.30;99.90;;;;;;4997515;28;20462;-77
2022/12/22 15:48:27;;;;;;;6.97;2.07;;;11.30;99.90;;;;;;4999115;28;20803;-77
2022/12/22 15:51:20;;;;;;;4.30;1.60;;;11.30;99.90;;;;;;5009500;28;20468;-74
2022/12/22 15:54:11;;;;;;;6.97;1.80;;;11.30;99.90;;;;;;5006185;28;20501;-73
2022/12/22 15:56:57;;;;;;;4.17;1.60;;;11.30;99.90;;;;;;5007425;28;20458;-73
2022/12/22 15:59:43;;;;;;;4.87;1.60;;;11.30;99.90;;;;;;5012239;28;20528;-72
2022/12/22 16:02:29;;;;;;;6.13;4.03;;;11.30;99.90;;;;;;5004775;28;20676;-71
2022/12/22 16:05:15;;;;;;;19.43;13.57;;;11.20;99.90;;;;;;5019166;28;20977;-72
2022/12/22 16:08:03;;;;;;;6.80;4.80;;;11.20;99.90;;;;;;5002769;28;20448;-76
2022/12/22 16:10:49;;;;;;;4.83;4.33;;;11.20;99.90;;;;;;5021697;28;20425;-75
2022/12/22 16:13:37;;;;;;;6.10;3.00;;;11.20;99.90;;;;;;5023136;28;20661;-74
2022/12/22 16:16:23;;;;;;;4.07;3.67;;;11.10;99.90;;;;;;5005795;28;20449;-73
2022/12/22 16:19:12;;;;;;;8.77;3.40;;;11.10;99.90;;;;;;5001072;28;21225;-74
2022/12/22 16:21:58;;;;;;;4.87;3.63;;;11.10;99.90;;;;;;5010892;28;20448;-72
2022/12/22 16:24:48;;;;;;;7.10;3.33;;;11.10;99.90;;;;;;4999791;28;20554;-72
2022/12/22 16:27:35;;;;;;;8.33;3.63;;;11.10;99.90;;;;;;4996565;28;20449;-72
2022/12/22 16:30:22;;;;;;;6.07;3.83;;;11.00;99.90;;;;;;5003192;28;20458;-72
2022/12/22 16:33:10;;;;;;;5.03;3.73;;;11.10;99.90;;;;;;5007517;28;20965;-72
2022/12/22 16:35:56;;;;;;;7.60;5.07;;;11.10;99.90;;;;;;5002805;28;20569;-71
2022/12/22 16:38:42;;;;;;;9.10;4.83;;;11.10;99.90;;;;;;5010553;28;20441;-74
2022/12/22 16:41:29;;;;;;;10.70;3.70;;;11.10;99.90;;;;;;5011075;28;20434;-72
2022/12/22 16:44:20;;;;;;;7.87;3.50;;;11.10;99.90;;;;;;5004214;28;20877;-71
2022/12/22 16:47:06;;;;;;;8.93;4.00;;;11.10;99.90;;;;;;4991703;28;20572;-72
2022/12/22 16:49:52;;;;;;;11.60;4.27;;;11.00;99.90;;;;;;5009802;28;20424;-72
2022/12/22 16:52:40;;;;;;;10.87;5.80;;;11.00;99.90;;;;;;5007325;28;20844;-72
2022/12/22 16:55:27;;;;;;;10.57;4.43;;;11.10;99.90;;;;;;5011612;28;20480;-73
2022/12/22 16:58:14;;;;;;;11.73;4.50;;;11.10;99.90;;;;;;5005915;28;20580;-72
2022/12/22 17:00:59;;;;;;;13.97;5.30;;;11.20;99.90;;;;;;5001366;28;20449;-72
2022/12/22 17:03:45;;;;;;;21.67;4.43;;;11.10;99.90;;;;;;5004773;28;21164;-72
2022/12/22 17:06:31;;;;;;;17.27;5.50;;;11.10;99.90;;;;;;4998460;28;20441;-76
2022/12/22 17:09:20;;;;;;;17.60;5.23;;;11.20;99.90;;;;;;5011669;28;20437;-75
2022/12/22 17:12:06;;;;;;;18.23;3.87;;;11.20;99.90;;;;;;5009271;28;20453;-75
2022/12/22 17:14:55;;;;;;;20.10;5.30;;;11.20;99.90;;;;;;5002103;28;21061;-75
2022/12/22 17:17:41;;;;;;;18.00;4.70;;;11.20;99.90;;;;;;4998568;28;20914;-75
2022/12/22 17:20:28;;;;;;;14.33;5.67;;;11.20;99.90;;;;;;5001274;28;20840;-75
2022/12/22 17:23:30;;;;;;;23.90;5.93;;;11.20;99.90;;;;;;5004989;28;20505;-76
2022/12/22 17:26:18;;;;;;;22.47;5.03;;;11.20;99.90;;;;;;5002175;28;20453;-75
2022/12/22 17:29:04;;;;;;;26.57;6.40;;;11.20;99.90;;;;;;5008108;28;20545;-74
2022/12/22 17:31:55;;;;;;;25.70;4.93;;;11.20;99.90;;;;;;5015996;28;21017;-74
2022/12/22 17:34:40;;;;;;;31.10;5.63;;;11.30;99.90;;;;;;5020878;28;20881;-74
2022/12/22 17:37:26;;;;;;;22.40;6.40;;;11.20;99.90;;;;;;5009477;28;20520;-74
2022/12/22 17:40:17;;;;;;;33.90;6.77;;;11.30;99.90;;;;;;5012968;28;20460;-74
2022/12/22 17:43:03;;;;;;;22.23;5.00;;;11.20;99.90;;;;;;5009567;28;20474;-74
2022/12/22 17:45:52;;;;;;;39.13;6.87;;;11.30;99.90;;;;;;4998104;28;20464;-75
2022/12/22 17:48:39;;;;;;;41.07;7.47;;;11.20;99.90;;;;;;5010366;28;20449;-75
2022/12/22 17:51:28;;;;;;;34.07;6.67;;;11.20;99.90;;;;;;5015269;28;20478;-75
2022/12/22 17:54:21;;;;;;;27.00;6.33;;;11.20;99.90;;;;;;5004291;28;20477;-76
2022/12/22 17:57:14;;;;;;;25.93;5.93;;;11.20;99.90;;;;;;5004167;28;20454;-76
2022/12/22 17:59:59;;;;;;;25.83;5.10;;;11.30;99.90;;;;;;5000334;28;20520;-72
2022/12/22 18:02:45;;;;;;;38.13;6.93;;;11.20;99.90;;;;;;5005372;28;20531;-72
2022/12/22 18:05:39;;;;;;;27.47;5.90;;;11.20;99.90;;;;;;4998425;28;20539;-72
2022/12/22 18:08:25;;;;;;;34.10;6.40;;;11.00;99.90;;;;;;5008680;28;20483;-75
2022/12/22 18:11:11;;;;;;;26.30;6.60;;;11.10;99.90;;;;;;5003537;28;20467;-75
2022/12/22 18:13:59;;;;;;;20.93;5.27;;;11.10;99.90;;;;;;4999322;28;20573;-75
2022/12/22 18:16:45;;;;;;;25.20;6.13;;;11.10;99.90;;;;;;5008549;28;20832;-75
2022/12/22 18:19:31;;;;;;;33.50;6.93;;;11.10;99.90;;;;;;5001608;28;20457;-75
2022/12/22 18:22:21;;;;;;;36.80;8.73;;;11.10;99.90;;;;;;4997336;28;20533;-75